CYUX

Hall Beach Airport

Hall Beach, Canada
METAR CYUX 191400Z 05011KT 12SM DRSN FEW005 M24/M27 A3006 RMK SF1 SLP183
Observed Flight Rules
Jan-19 @ 14:00 UTC (an hour ago) Visual Flight Rules
Wind Visibility Clouds Conditions
50° at 11 knots 12 miles
  • Few at 500' AGL
  • Low drifting
  • Snow
Temperatures Readings
Current -24°C / -11°F
Dewpoint -27°C / -17°F
Humidity 76%
Altimeter 30.06" Hg
Pressure 1018.3 hPa
Elevation 8
METAR CYUX 191400Z 05011KT 12SM DRSN FEW005 M24/M27 A3006 RMK SF1 SLP183
Observed Flight Rules
Jan-19 @ 14:00 UTC
(an hour ago)
VFR
Wind Visibility
50° at 11 knots 12 miles
Clouds
  • Few at 500' AGL
Conditions
  • Low drifting
  • Snow
Temperature Dewpoint
-24°C / -11°F -27°C / -17°F
Humidity Altimeter Pressure
76% 30.06" Hg 1018.3 hPa